createdAt,value
2017-08-02T00:00:04.240Z,16.68
2017-08-02T00:01:05.480Z,16.63
2017-08-02T00:02:06.797Z,16.6
2017-08-02T00:03:08.031Z,16.7
2017-08-02T00:04:09.359Z,16.7
2017-08-02T00:05:10.583Z,16.7
2017-08-02T00:06:11.819Z,16.77
2017-08-02T00:07:13.169Z,16.75
2017-08-02T00:08:14.478Z,16.75
2017-08-02T00:09:15.748Z,16.78
2017-08-02T00:10:17.101Z,16.83
2017-08-02T00:11:18.355Z,16.86
2017-08-02T00:12:19.574Z,16.86
2017-08-02T00:13:20.818Z,16.88
2017-08-02T00:14:22.062Z,16.81
2017-08-02T00:15:23.543Z,16.83
2017-08-02T00:16:24.780Z,16.88
2017-08-02T00:17:26.028Z,16.86
2017-08-02T00:18:27.263Z,16.85
2017-08-02T00:19:28.523Z,16.93
2017-08-02T00:20:29.864Z,16.93
2017-08-02T00:21:31.108Z,16.96
2017-08-02T00:22:32.347Z,16.9
2017-08-02T00:23:33.584Z,16.93
2017-08-02T00:24:34.946Z,16.85
2017-08-02T00:25:36.182Z,16.9
2017-08-02T00:26:37.425Z,16.89
2017-08-02T00:27:38.662Z,16.85
2017-08-02T00:28:39.897Z,16.9
2017-08-02T00:29:41.243Z,16.81
2017-08-02T00:30:42.489Z,16.88
2017-08-02T00:31:43.755Z,16.86
2017-08-02T00:32:44.983Z,16.83
2017-08-02T00:33:46.216Z,16.78
2017-08-02T00:34:47.455Z,16.8
2017-08-02T00:35:48.698Z,16.75
2017-08-02T00:36:49.932Z,16.75
2017-08-02T00:37:51.202Z,16.73
2017-08-02T00:38:52.543Z,16.73
2017-08-02T00:39:53.783Z,16.71
2017-08-02T00:40:55.229Z,16.65
2017-08-02T00:41:56.475Z,16.73
2017-08-02T00:42:57.699Z,16.6
2017-08-02T00:43:58.941Z,16.74
2017-08-02T00:45:00.207Z,16.6
2017-08-02T00:46:01.516Z,16.59
2017-08-02T00:47:02.756Z,16.62
2017-08-02T00:48:03.982Z,16.62
2017-08-02T00:49:05.250Z,16.58
2017-08-02T00:50:06.475Z,16.73
2017-08-02T00:51:07.739Z,16.59
2017-08-02T00:52:08.959Z,16.59
2017-08-02T00:53:10.243Z,16.68
2017-08-02T00:54:11.439Z,16.62
2017-08-02T00:55:12.690Z,16.62
2017-08-02T00:56:13.922Z,16.62
2017-08-02T00:57:15.246Z,16.52
2017-08-02T00:58:16.708Z,16.52
2017-08-02T00:59:17.960Z,16.56
2017-08-02T01:00:19.231Z,16.62
2017-08-02T01:01:20.472Z,16.48
2017-08-02T01:02:21.711Z,16.48
2017-08-02T01:03:22.968Z,16.52
2017-08-02T01:04:24.219Z,16.45
2017-08-02T01:05:25.538Z,16.41
2017-08-02T01:06:26.789Z,16.38
2017-08-02T01:07:28.040Z,16.38
2017-08-02T01:08:29.287Z,16.35
2017-08-02T01:09:30.532Z,16.33
2017-08-02T01:10:31.801Z,16.27
2017-08-02T01:11:33.070Z,16.23
2017-08-02T01:12:34.312Z,16.3
2017-08-02T01:13:35.555Z,16.27
2017-08-02T01:14:36.789Z,16.33
2017-08-02T01:15:38.030Z,16.33
2017-08-02T01:16:39.376Z,16.31
2017-08-02T01:17:40.633Z,16.3
2017-08-02T01:18:41.870Z,16.25
2017-08-02T01:19:43.120Z,16.33
2017-08-02T01:20:44.362Z,16.31
2017-08-02T01:21:45.623Z,16.34
2017-08-02T01:22:46.997Z,16.26
2017-08-02T01:23:48.232Z,16.31
2017-08-02T01:24:49.481Z,16.31
2017-08-02T01:25:50.721Z,16.3
2017-08-02T01:26:51.958Z,16.35
2017-08-02T01:27:53.359Z,16.34
2017-08-02T01:28:54.629Z,16.33
2017-08-02T01:29:55.849Z,16.44
2017-08-02T01:30:57.094Z,16.35
2017-08-02T01:31:58.362Z,16.4
2017-08-02T01:32:59.573Z,16.34
2017-08-02T01:34:00.815Z,16.42
2017-08-02T01:35:02.052Z,16.34
2017-08-02T01:36:03.395Z,16.4
2017-08-02T01:37:04.654Z,16.37
2017-08-02T01:38:05.960Z,16.38
2017-08-02T01:39:07.417Z,16.37
2017-08-02T01:40:08.647Z,16.42
2017-08-02T01:41:09.986Z,16.44
2017-08-02T01:42:11.237Z,16.4
2017-08-02T01:43:12.483Z,16.41
2017-08-02T01:44:13.729Z,16.41
2017-08-02T01:45:15.074Z,16.37
2017-08-02T01:46:16.327Z,16.35
2017-08-02T01:47:17.570Z,16.44
2017-08-02T01:48:18.868Z,16.34
2017-08-02T01:49:20.096Z,16.37
2017-08-02T01:50:21.323Z,16.3
2017-08-02T01:51:22.560Z,16.34
2017-08-02T01:52:23.797Z,16.33
2017-08-02T01:53:25.133Z,16.4
2017-08-02T01:54:26.367Z,16.22
2017-08-02T01:55:27.604Z,16.25
2017-08-02T01:56:28.843Z,16.31
2017-08-02T01:57:30.081Z,16.23
2017-08-02T01:58:31.358Z,16.22
2017-08-02T01:59:32.645Z,16.23
2017-08-02T02:00:33.894Z,16.23
2017-08-02T02:01:35.128Z,16.23
2017-08-02T02:02:36.374Z,16.25
2017-08-02T02:03:37.605Z,16.33
2017-08-02T02:04:38.863Z,16.22
2017-08-02T02:05:40.088Z,16.23
2017-08-02T02:06:41.346Z,16.23
2017-08-02T02:07:42.704Z,16.25
2017-08-02T02:08:43.940Z,16.26
2017-08-02T02:09:45.175Z,16.25
2017-08-02T02:10:46.412Z,16.25
2017-08-02T02:11:47.649Z,16.16
2017-08-02T02:12:48.942Z,16.12
2017-08-02T02:13:50.165Z,16.18
2017-08-02T02:14:51.492Z,16.15
2017-08-02T02:15:52.735Z,16.23
2017-08-02T02:16:53.983Z,16.18
2017-08-02T02:17:55.213Z,16.22
2017-08-02T02:18:56.478Z,16.12
2017-08-02T02:19:57.813Z,16.25
2017-08-02T02:20:59.045Z,16.16
2017-08-02T02:22:00.275Z,16.26
2017-08-02T02:23:01.512Z,16.18
2017-08-02T02:24:02.877Z,16.2
2017-08-02T02:25:04.110Z,16.31
2017-08-02T02:26:05.356Z,16.34
2017-08-02T02:27:06.677Z,16.27
2017-08-02T02:28:07.953Z,16.35
2017-08-02T02:29:09.235Z,16.38
2017-08-02T02:30:10.477Z,16.35
2017-08-02T02:31:11.733Z,16.35
2017-08-02T02:32:12.986Z,16.33
2017-08-02T02:33:14.214Z,16.38
2017-08-02T02:34:15.484Z,16.4
2017-08-02T02:35:16.717Z,16.4
2017-08-02T02:36:17.952Z,16.38
2017-08-02T02:37:19.261Z,16.35
2017-08-02T02:38:20.527Z,16.35
2017-08-02T02:39:21.803Z,16.38
2017-08-02T02:40:23.036Z,16.38
2017-08-02T02:41:24.274Z,16.4
2017-08-02T02:42:25.515Z,16.37
2017-08-02T02:43:26.774Z,16.4
2017-08-02T02:44:28.012Z,16.4
2017-08-02T02:45:29.333Z,16.37
2017-08-02T02:46:30.571Z,16.37
2017-08-02T02:47:31.809Z,16.34
2017-08-02T02:48:33.052Z,16.33
2017-08-02T02:49:34.287Z,16.34
2017-08-02T02:50:35.546Z,16.35
2017-08-02T02:51:36.905Z,16.4
2017-08-02T02:52:38.144Z,16.34
2017-08-02T02:53:39.403Z,16.26
2017-08-02T02:54:40.648Z,16.15
2017-08-02T02:55:41.883Z,16.23
2017-08-02T02:56:43.174Z,16.31
2017-08-02T02:57:44.411Z,16.27
2017-08-02T02:58:45.680Z,16.2
2017-08-02T02:59:46.933Z,16.07
2017-08-02T03:00:48.156Z,16.11
2017-08-02T03:01:49.459Z,16.11
2017-08-02T03:02:50.755Z,16.14
2017-08-02T03:03:52.030Z,16.12
2017-08-02T03:04:53.306Z,16.11
2017-08-02T03:05:54.543Z,16.09
2017-08-02T03:06:55.782Z,16.16
2017-08-02T03:07:57.102Z,16.06
2017-08-02T03:08:58.324Z,16.14
2017-08-02T03:09:59.564Z,16.12
2017-08-02T03:11:00.806Z,16.12
2017-08-02T03:12:02.049Z,16.09
2017-08-02T03:13:03.292Z,16.12
2017-08-02T03:14:04.539Z,16.12
2017-08-02T03:15:05.779Z,16.15
2017-08-02T03:16:07.060Z,16.09
2017-08-02T03:17:08.313Z,16.07
2017-08-02T03:18:09.533Z,16.2
2017-08-02T03:19:10.781Z,16.23
2017-08-02T03:20:12.030Z,16.22
2017-08-02T03:21:13.271Z,16.25
2017-08-02T03:22:14.648Z,16.26
2017-08-02T03:23:15.881Z,16.25
2017-08-02T03:24:17.177Z,16.25
2017-08-02T03:25:18.420Z,16.31
2017-08-02T03:26:19.645Z,16.31
2017-08-02T03:27:21.011Z,16.25
2017-08-02T03:28:22.255Z,16.25
2017-08-02T03:29:23.515Z,16.25
2017-08-02T03:30:24.733Z,16.26
2017-08-02T03:31:26.002Z,16.23
2017-08-02T03:32:27.223Z,16.18
2017-08-02T03:33:28.455Z,16.25
2017-08-02T03:34:29.690Z,16.26
2017-08-02T03:35:30.998Z,16.31
2017-08-02T03:36:32.220Z,16.22
2017-08-02T03:37:33.548Z,16.3
2017-08-02T03:38:34.788Z,16.25
2017-08-02T03:39:36.024Z,16.22
2017-08-02T03:40:37.256Z,16.31
2017-08-02T03:41:38.628Z,16.26
2017-08-02T03:42:39.851Z,16.27
2017-08-02T03:43:41.154Z,16.27
2017-08-02T03:44:42.392Z,16.23
2017-08-02T03:45:43.633Z,16.35
2017-08-02T03:46:44.879Z,16.31
2017-08-02T03:47:46.119Z,16.27
2017-08-02T03:48:47.466Z,16.26
2017-08-02T03:49:48.713Z,16.26
2017-08-02T03:50:50.021Z,16.22
2017-08-02T03:51:51.236Z,16.25
2017-08-02T03:52:52.481Z,16.25
2017-08-02T03:53:53.752Z,16.22
2017-08-02T03:54:55.021Z,16.38
2017-08-02T03:55:56.252Z,16.33
2017-08-02T03:56:57.510Z,16.3
2017-08-02T03:57:58.732Z,16.41
2017-08-02T03:58:59.969Z,16.35
2017-08-02T04:00:01.227Z,16.41
2017-08-02T04:01:02.441Z,16.34
2017-08-02T04:02:03.705Z,16.4
2017-08-02T04:03:05.005Z,16.34
2017-08-02T04:04:06.377Z,16.4
2017-08-02T04:05:07.500Z,16.38
2017-08-02T04:06:08.786Z,16.4
2017-08-02T04:07:10.005Z,16.4
2017-08-02T04:08:11.247Z,16.45
2017-08-02T04:09:12.491Z,16.45
2017-08-02T04:10:13.729Z,16.48
2017-08-02T04:11:14.999Z,16.45
2017-08-02T04:12:16.239Z,16.45
2017-08-02T04:13:17.487Z,16.5
2017-08-02T04:14:18.789Z,16.52
2017-08-02T04:15:20.138Z,16.52
2017-08-02T04:16:21.421Z,16.5
2017-08-02T04:17:22.655Z,16.52
2017-08-02T04:18:23.903Z,16.59
2017-08-02T04:19:25.203Z,16.55
2017-08-02T04:20:26.454Z,16.62
2017-08-02T04:21:27.703Z,16.55
2017-08-02T04:22:29.046Z,16.55
2017-08-02T04:23:30.285Z,16.6
2017-08-02T04:24:31.520Z,16.62
2017-08-02T04:25:32.782Z,16.59
2017-08-02T04:26:34.009Z,16.67
2017-08-02T04:27:35.246Z,16.68
2017-08-02T04:28:36.488Z,16.75
2017-08-02T04:29:37.726Z,16.7
2017-08-02T04:30:38.973Z,16.85
2017-08-02T04:31:40.213Z,16.86
2017-08-02T04:32:41.461Z,16.86
2017-08-02T04:33:42.712Z,16.93
2017-08-02T04:34:43.993Z,17
2017-08-02T04:35:45.312Z,17.06
2017-08-02T04:36:46.563Z,17.04
2017-08-02T04:37:47.837Z,17.06
2017-08-02T04:38:49.069Z,17.11
2017-08-02T04:39:50.308Z,17.15
2017-08-02T04:40:51.659Z,17.1
2017-08-02T04:41:52.915Z,17.15
2017-08-02T04:42:54.241Z,17.29
2017-08-02T04:43:55.452Z,17.25
2017-08-02T04:44:56.703Z,17.26
2017-08-02T04:45:57.934Z,17.3
2017-08-02T04:46:59.192Z,17.41
2017-08-02T04:48:00.559Z,17.44
2017-08-02T04:49:01.678Z,17.46
2017-08-02T04:50:02.920Z,17.46
2017-08-02T04:51:04.158Z,17.53
2017-08-02T04:52:05.415Z,17.54
2017-08-02T04:53:06.802Z,17.57
2017-08-02T04:54:08.006Z,17.63
2017-08-02T04:55:09.272Z,17.66
2017-08-02T04:56:10.519Z,17.74
2017-08-02T04:57:11.750Z,17.67
2017-08-02T04:58:13.053Z,17.76
2017-08-02T04:59:14.332Z,17.71
2017-08-02T05:00:15.619Z,17.74
2017-08-02T05:01:16.959Z,17.82
2017-08-02T05:02:18.205Z,17.81
2017-08-02T05:03:19.546Z,17.73
2017-08-02T05:04:20.817Z,17.73
2017-08-02T05:05:22.064Z,17.76
2017-08-02T05:06:23.363Z,17.67
2017-08-02T05:07:24.603Z,17.66
2017-08-02T05:08:25.860Z,17.57
2017-08-02T05:09:27.084Z,17.62
2017-08-02T05:10:28.321Z,17.46
2017-08-02T05:11:29.570Z,17.54
2017-08-02T05:12:30.889Z,17.51
2017-08-02T05:13:32.137Z,17.5
2017-08-02T05:14:33.379Z,17.5
2017-08-02T05:15:34.607Z,17.5
2017-08-02T05:16:35.850Z,17.48
2017-08-02T05:17:37.172Z,17.51
2017-08-02T05:18:38.404Z,17.57
2017-08-02T05:19:39.704Z,17.46
2017-08-02T05:20:40.945Z,17.54
2017-08-02T05:21:42.182Z,17.54
2017-08-02T05:22:43.442Z,17.59
2017-08-02T05:23:44.749Z,17.59
2017-08-02T05:24:46.071Z,17.63
2017-08-02T05:25:47.329Z,17.63
2017-08-02T05:26:48.558Z,17.59
2017-08-02T05:27:49.788Z,17.67
2017-08-02T05:28:51.037Z,17.73
2017-08-02T05:29:52.326Z,17.81
2017-08-02T05:30:53.626Z,17.81
2017-08-02T05:31:54.876Z,17.88
2017-08-02T05:32:56.172Z,17.76
2017-08-02T05:33:57.370Z,17.81
2017-08-02T05:34:58.614Z,17.89
2017-08-02T05:35:59.890Z,17.97
2017-08-02T05:37:01.182Z,18.03
2017-08-02T05:38:02.453Z,18.06
2017-08-02T05:39:03.688Z,18.12
2017-08-02T05:40:04.938Z,18.18
2017-08-02T05:41:06.186Z,18.27
2017-08-02T05:42:07.538Z,18.34
2017-08-02T05:43:08.841Z,18.28
2017-08-02T05:44:10.078Z,18.33
2017-08-02T05:45:11.328Z,18.33
2017-08-02T05:46:12.563Z,18.47
2017-08-02T05:47:13.835Z,18.49
2017-08-02T05:48:15.051Z,18.5
2017-08-02T05:49:16.304Z,18.57
2017-08-02T05:50:17.643Z,18.68
2017-08-02T05:51:18.878Z,18.68
2017-08-02T05:52:20.127Z,18.77
2017-08-02T05:53:21.368Z,18.9
2017-08-02T05:54:22.671Z,18.99
2017-08-02T05:55:23.938Z,19.05
2017-08-02T05:56:25.178Z,19.14
2017-08-02T05:57:26.488Z,19.17
2017-08-02T05:58:27.737Z,19.23
2017-08-02T05:59:28.966Z,19.21
2017-08-02T06:00:30.221Z,19.36
2017-08-02T06:01:31.484Z,19.25
2017-08-02T06:02:32.798Z,19.38
2017-08-02T06:03:34.048Z,19.38
2017-08-02T06:04:35.349Z,19.57
2017-08-02T06:05:36.600Z,19.6
2017-08-02T06:06:37.827Z,19.5
2017-08-02T06:07:39.158Z,19.63
2017-08-02T06:08:40.404Z,19.72
2017-08-02T06:09:41.647Z,19.86
2017-08-02T06:10:42.892Z,19.94
2017-08-02T06:11:44.134Z,20.02
2017-08-02T06:12:45.394Z,20.03
2017-08-02T06:13:46.661Z,20.1
2017-08-02T06:14:48.004Z,20.05
2017-08-02T06:15:49.277Z,19.97
2017-08-02T06:16:50.517Z,19.91
2017-08-02T06:17:51.756Z,19.87
2017-08-02T06:18:53.078Z,20.02
2017-08-02T06:19:54.351Z,20.09
2017-08-02T06:20:55.588Z,20.05
2017-08-02T06:21:56.873Z,20.03
2017-08-02T06:22:58.126Z,19.95
2017-08-02T06:23:59.373Z,19.95
2017-08-02T06:25:00.734Z,19.93
2017-08-02T06:26:02.112Z,19.95
2017-08-02T06:27:03.382Z,19.94
2017-08-02T06:28:04.619Z,20.06
2017-08-02T06:29:05.872Z,20.12
2017-08-02T06:30:07.159Z,20.15
2017-08-02T06:31:08.402Z,20.25
2017-08-02T06:32:09.647Z,20.28
2017-08-02T06:33:10.931Z,20.25
2017-08-02T06:34:12.167Z,20.23
2017-08-02T06:35:13.408Z,20.27
2017-08-02T06:36:14.643Z,20.08
2017-08-02T06:37:15.882Z,20.2
2017-08-02T06:38:17.151Z,20.15
2017-08-02T06:39:18.413Z,20.09
2017-08-02T06:40:19.708Z,20.16
2017-08-02T06:41:20.950Z,20.28
2017-08-02T06:42:22.187Z,20.47
2017-08-02T06:43:23.522Z,20.62
2017-08-02T06:44:24.765Z,20.76
2017-08-02T06:45:26.014Z,20.99
2017-08-02T06:46:27.264Z,21.42
2017-08-02T06:47:28.509Z,21.71
2017-08-02T06:48:29.754Z,21.88
2017-08-02T06:49:31.060Z,21.98
2017-08-02T06:50:32.294Z,21.85
2017-08-02T06:51:33.593Z,21.81
2017-08-02T06:52:34.838Z,21.76
2017-08-02T06:53:36.083Z,21.79
2017-08-02T06:54:37.330Z,21.74
2017-08-02T06:55:38.567Z,21.74
2017-08-02T06:56:39.836Z,21.64
2017-08-02T06:57:41.211Z,21.63
2017-08-02T06:58:42.466Z,21.54
2017-08-02T06:59:43.693Z,21.45
2017-08-02T07:00:44.934Z,21.44
2017-08-02T07:01:46.193Z,21.44
2017-08-02T07:02:47.441Z,21.36
2017-08-02T07:03:48.743Z,21.41
2017-08-02T07:04:50.003Z,21.5
2017-08-02T07:05:51.231Z,21.61
2017-08-02T07:06:52.466Z,21.72
2017-08-02T07:07:53.707Z,21.83
2017-08-02T07:08:54.958Z,21.88
2017-08-02T07:09:56.198Z,22.01
2017-08-02T07:10:57.457Z,22.09
2017-08-02T07:11:58.707Z,22.1
2017-08-02T07:12:59.960Z,22.02
2017-08-02T07:14:01.210Z,21.92
2017-08-02T07:15:02.450Z,21.85
2017-08-02T07:16:03.729Z,21.74
2017-08-02T07:17:05.105Z,21.71
2017-08-02T07:18:06.440Z,21.66
2017-08-02T07:19:07.657Z,21.69
2017-08-02T07:20:08.897Z,21.78
2017-08-02T07:21:10.145Z,21.67
2017-08-02T07:22:11.452Z,21.74
2017-08-02T07:23:12.772Z,21.91
2017-08-02T07:24:13.998Z,22.12
2017-08-02T07:25:15.251Z,22.22
2017-08-02T07:26:16.501Z,22.35
2017-08-02T07:27:17.745Z,22.47
2017-08-02T07:28:19.021Z,22.49
2017-08-02T07:29:20.269Z,22.52
2017-08-02T07:30:21.520Z,22.68
2017-08-02T07:31:22.764Z,23.01
2017-08-02T07:32:24.008Z,23.38
2017-08-02T07:33:25.293Z,23.97
2017-08-02T07:34:26.595Z,24.98
2017-08-02T07:35:27.843Z,26.06
2017-08-02T07:36:29.106Z,26.69
2017-08-02T07:37:30.355Z,26.86
2017-08-02T07:38:31.603Z,26.81
2017-08-02T07:39:32.841Z,26.83
2017-08-02T07:40:34.090Z,27.01
2017-08-02T07:41:35.329Z,27.02
2017-08-02T07:42:36.588Z,27.09
2017-08-02T07:43:37.837Z,27.01
2017-08-02T07:44:39.086Z,26.74
2017-08-02T07:45:40.333Z,26.5
2017-08-02T07:46:41.728Z,26.64
2017-08-02T07:47:42.977Z,26.68
2017-08-02T07:48:44.229Z,26.79
2017-08-02T07:49:45.471Z,26.98
2017-08-02T07:50:46.712Z,27.04
2017-08-02T07:51:47.959Z,27.1
2017-08-02T07:52:49.248Z,27.28
2017-08-02T07:53:50.582Z,27.29
2017-08-02T07:54:51.823Z,27.33
2017-08-02T07:55:53.080Z,27.35
2017-08-02T07:56:54.397Z,27.43
2017-08-02T07:57:55.575Z,27.58
2017-08-02T07:58:56.858Z,27.79
2017-08-02T07:59:58.130Z,28.1
2017-08-02T08:00:59.650Z,28.11
2017-08-02T08:02:00.937Z,28.19
2017-08-02T08:03:02.194Z,28.28
2017-08-02T08:04:03.498Z,28.4
2017-08-02T08:05:04.750Z,28.51
2017-08-02T08:06:06.018Z,28.56
2017-08-02T08:07:07.266Z,28.54
2017-08-02T08:08:08.568Z,28.53
2017-08-02T08:09:09.813Z,28.54
2017-08-02T08:10:11.061Z,28.33
2017-08-02T08:11:12.311Z,28.23
2017-08-02T08:12:13.550Z,28.14
2017-08-02T08:13:14.888Z,27.98
2017-08-02T08:14:16.117Z,27.92
2017-08-02T08:15:17.428Z,27.77
2017-08-02T08:16:18.682Z,27.62
2017-08-02T08:17:19.963Z,27.21
2017-08-02T08:18:21.190Z,27.17
2017-08-02T08:19:22.438Z,27.02
2017-08-02T08:20:23.688Z,27.09
2017-08-02T08:21:24.933Z,27.23
2017-08-02T08:22:26.172Z,27.19
2017-08-02T08:23:27.495Z,27.41
2017-08-02T08:24:28.764Z,27.59
2017-08-02T08:25:30.008Z,27.79
2017-08-02T08:26:31.278Z,28.06
2017-08-02T08:27:32.521Z,28.23
2017-08-02T08:28:33.776Z,28.22
2017-08-02T08:29:35.047Z,28.36
2017-08-02T08:30:36.297Z,28.56
2017-08-02T08:31:37.548Z,28.22
2017-08-02T08:32:38.898Z,28.28
2017-08-02T08:33:40.145Z,28.48
2017-08-02T08:34:41.418Z,29.06
2017-08-02T08:35:42.676Z,29.35
2017-08-02T08:36:43.913Z,29.81
2017-08-02T08:37:45.252Z,29.97
2017-08-02T08:38:46.428Z,30.3
2017-08-02T08:39:47.697Z,30.46
2017-08-02T08:40:48.944Z,30.5
2017-08-02T08:41:50.202Z,30.75
2017-08-02T08:42:51.479Z,30.87
2017-08-02T08:43:52.731Z,30.75
2017-08-02T08:44:53.981Z,30.68
2017-08-02T08:45:55.260Z,30.43
2017-08-02T08:46:56.501Z,30.11
2017-08-02T08:47:57.748Z,29.92
2017-08-02T08:48:59.019Z,29.65
2017-08-02T08:50:00.279Z,29.45
2017-08-02T08:51:01.529Z,29.25
2017-08-02T08:52:02.780Z,29.11
2017-08-02T08:53:04.038Z,28.84
2017-08-02T08:54:05.308Z,28.7
2017-08-02T08:55:06.557Z,28.56
2017-08-02T08:56:07.798Z,28.41
2017-08-02T08:57:09.181Z,28.38
2017-08-02T08:58:10.424Z,28.28
2017-08-02T08:59:11.668Z,28.13
2017-08-02T09:00:12.918Z,27.95
2017-08-02T09:01:14.170Z,27.61
2017-08-02T09:02:15.474Z,27.48
2017-08-02T09:03:16.729Z,27.29
2017-08-02T09:04:18.086Z,27.28
2017-08-02T09:05:19.334Z,27.17
2017-08-02T09:06:20.577Z,27.06
2017-08-02T09:07:21.838Z,27.14
2017-08-02T09:08:23.174Z,27.1
2017-08-02T09:09:24.443Z,27.11
2017-08-02T09:10:25.687Z,27.38
2017-08-02T09:11:26.936Z,27.47
2017-08-02T09:12:28.184Z,27.46
2017-08-02T09:13:29.449Z,27.57
2017-08-02T09:14:30.747Z,27.58
2017-08-02T09:15:32.035Z,27.64
2017-08-02T09:16:33.257Z,27.53
2017-08-02T09:17:34.528Z,27.79
2017-08-02T09:18:35.753Z,28.14
2017-08-02T09:19:37.096Z,28.46
2017-08-02T09:20:38.342Z,28.54
2017-08-02T09:21:39.581Z,28.68
2017-08-02T09:22:40.919Z,28.65
2017-08-02T09:23:42.141Z,28.69
2017-08-02T09:24:43.381Z,28.59
2017-08-02T09:25:44.626Z,28.51
2017-08-02T09:26:45.875Z,28.35
2017-08-02T09:27:47.240Z,27.95
2017-08-02T09:28:48.503Z,27.73
2017-08-02T09:29:49.737Z,27.77
2017-08-02T09:30:50.985Z,27.79
2017-08-02T09:31:52.232Z,27.92
2017-08-02T09:32:53.478Z,28.14
2017-08-02T09:33:54.746Z,28.4
2017-08-02T09:34:55.973Z,28.73
2017-08-02T09:35:57.231Z,29.16
2017-08-02T09:36:58.499Z,29.75
2017-08-02T09:37:59.740Z,30.31
2017-08-02T09:39:00.985Z,30.9
2017-08-02T09:40:02.231Z,31.43
2017-08-02T09:41:03.526Z,31.7
2017-08-02T09:42:04.786Z,31.68
2017-08-02T09:43:06.055Z,31.28
2017-08-02T09:44:07.389Z,30.75
2017-08-02T09:45:08.670Z,29.96
2017-08-02T09:46:09.868Z,29.28
2017-08-02T09:47:11.177Z,28.53
2017-08-02T09:48:12.436Z,28.32
2017-08-02T09:49:13.687Z,27.98
2017-08-02T09:50:14.933Z,27.48
2017-08-02T09:51:16.186Z,27.32
2017-08-02T09:52:17.443Z,27.61
2017-08-02T09:53:18.747Z,27.79
2017-08-02T09:54:20.032Z,28.26
2017-08-02T09:55:21.483Z,28.72
2017-08-02T09:56:22.722Z,29.1
2017-08-02T09:57:23.959Z,29.5
2017-08-02T09:58:25.227Z,29.7
2017-08-02T09:59:26.467Z,30.24
2017-08-02T10:00:27.816Z,30.81
2017-08-02T10:01:29.071Z,31.11
2017-08-02T10:02:30.323Z,31.99
2017-08-02T10:03:31.676Z,32.64
2017-08-02T10:04:32.922Z,33.01
2017-08-02T10:05:34.172Z,33.27
2017-08-02T10:06:35.422Z,33.2
2017-08-02T10:07:36.898Z,32.95
2017-08-02T10:08:38.149Z,32.88
2017-08-02T10:09:39.509Z,32.71
2017-08-02T10:10:40.750Z,32.58
2017-08-02T10:11:42.066Z,32.55
2017-08-02T10:12:43.342Z,32.27
2017-08-02T10:13:44.607Z,31.99
2017-08-02T10:14:45.853Z,31.95
2017-08-02T10:15:47.123Z,32.18
2017-08-02T10:16:48.367Z,32.49
2017-08-02T10:17:49.627Z,33.08
2017-08-02T10:18:50.857Z,33.71
2017-08-02T10:19:52.110Z,33.83
2017-08-02T10:20:53.407Z,33.94
2017-08-02T10:21:54.666Z,33.68
2017-08-02T10:22:55.919Z,33.74
2017-08-02T10:23:57.180Z,33.46
2017-08-02T10:24:58.438Z,33.04
2017-08-02T10:25:59.689Z,32.96
2017-08-02T10:27:00.945Z,33.06
2017-08-02T10:28:02.193Z,33.11
2017-08-02T10:29:03.450Z,33.34
2017-08-02T10:30:04.884Z,33.63
2017-08-02T10:31:06.128Z,34.08
2017-08-02T10:32:07.411Z,34.08
2017-08-02T10:33:08.648Z,34.07
2017-08-02T10:34:09.897Z,33.95
2017-08-02T10:35:11.176Z,33.83
2017-08-02T10:36:12.730Z,33.83
2017-08-02T10:37:13.974Z,33.3
2017-08-02T10:38:15.263Z,33.08
2017-08-02T10:39:16.516Z,33.04
2017-08-02T10:40:17.796Z,32.84
2017-08-02T10:41:19.090Z,32.33
2017-08-02T10:42:20.349Z,31.99
2017-08-02T10:43:21.608Z,31.46
2017-08-02T10:44:22.867Z,31.09
2017-08-02T10:45:24.100Z,30.9
2017-08-02T10:46:25.365Z,30.72
2017-08-02T10:47:26.614Z,30.8
2017-08-02T10:48:27.951Z,30.84
2017-08-02T10:49:29.204Z,30.91
2017-08-02T10:50:30.431Z,30.68
2017-08-02T10:51:31.696Z,30.23
2017-08-02T10:52:33.001Z,30.14
2017-08-02T10:53:34.243Z,29.78
2017-08-02T10:54:35.495Z,29.5
2017-08-02T10:55:36.745Z,29.33
2017-08-02T10:56:38.004Z,29.41
2017-08-02T10:57:39.375Z,29.28
2017-08-02T10:58:40.686Z,29.15
2017-08-02T10:59:41.983Z,29.1
2017-08-02T11:00:43.231Z,28.96
2017-08-02T11:01:44.481Z,28.87
2017-08-02T11:02:45.760Z,28.77
2017-08-02T11:03:46.996Z,28.73
2017-08-02T11:04:48.257Z,28.75
2017-08-02T11:05:49.508Z,28.8
2017-08-02T11:06:50.803Z,28.91
2017-08-02T11:07:52.044Z,29.16
2017-08-02T11:08:53.296Z,29.52
2017-08-02T11:09:54.553Z,29.86
2017-08-02T11:10:55.794Z,29.94
2017-08-02T11:11:57.153Z,30.05
2017-08-02T11:12:58.392Z,29.77
2017-08-02T11:13:59.953Z,29.56
2017-08-02T11:15:01.267Z,29.16
2017-08-02T11:16:02.521Z,28.9
2017-08-02T11:17:03.787Z,28.77
2017-08-02T11:18:05.225Z,28.77
2017-08-02T11:19:06.495Z,28.91
2017-08-02T11:20:07.824Z,28.95
2017-08-02T11:21:09.074Z,28.9
2017-08-02T11:22:10.327Z,28.81
2017-08-02T11:23:11.571Z,28.87
2017-08-02T11:24:12.820Z,29.08
2017-08-02T11:25:14.082Z,29.18
2017-08-02T11:26:15.421Z,29.26
2017-08-02T11:27:16.671Z,29.25
2017-08-02T11:28:17.927Z,29.1
2017-08-02T11:29:19.186Z,29.1
2017-08-02T11:30:20.547Z,28.87
2017-08-02T11:31:21.681Z,28.81
2017-08-02T11:32:22.926Z,28.82
2017-08-02T11:33:24.174Z,28.9
2017-08-02T11:34:25.429Z,28.77
2017-08-02T11:35:26.663Z,28.93
2017-08-02T11:36:27.983Z,29.08
2017-08-02T11:37:29.228Z,29.22
2017-08-02T11:38:30.477Z,29.35
2017-08-02T11:39:31.738Z,29.47
2017-08-02T11:40:33.049Z,29.35
2017-08-02T11:41:34.304Z,29.26
2017-08-02T11:42:35.554Z,29.15
2017-08-02T11:43:36.807Z,29.22
2017-08-02T11:44:38.074Z,29.16
2017-08-02T11:45:39.387Z,29.1
2017-08-02T11:46:40.677Z,28.53
2017-08-02T11:47:41.998Z,28.22
2017-08-02T11:48:43.335Z,28.04
2017-08-02T11:49:44.577Z,27.86
2017-08-02T11:50:45.822Z,27.7
2017-08-02T11:51:47.125Z,27.51
2017-08-02T11:52:48.396Z,27.46
2017-08-02T11:53:49.647Z,27.47
2017-08-02T11:54:50.894Z,27.61
2017-08-02T11:55:52.137Z,27.69
2017-08-02T11:56:53.486Z,27.89
2017-08-02T11:57:54.733Z,27.88
2017-08-02T11:58:55.982Z,27.8
2017-08-02T11:59:57.229Z,28.03
2017-08-02T12:00:58.494Z,28.21
2017-08-02T12:01:59.737Z,28.28
2017-08-02T12:03:00.986Z,28.54
2017-08-02T12:04:02.235Z,28.56
2017-08-02T12:05:03.494Z,28.63
2017-08-02T12:06:04.743Z,28.72
2017-08-02T12:07:05.998Z,28.68
2017-08-02T12:08:07.252Z,28.59
2017-08-02T12:09:08.495Z,28.69
2017-08-02T12:10:09.745Z,28.73
2017-08-02T12:11:11.102Z,28.66
2017-08-02T12:12:12.353Z,28.65
2017-08-02T12:13:13.635Z,28.59
2017-08-02T12:14:14.883Z,28.85
2017-08-02T12:15:16.134Z,28.77
2017-08-02T12:16:17.424Z,28.73
2017-08-02T12:17:18.666Z,28.72
2017-08-02T12:18:19.915Z,28.48
2017-08-02T12:19:21.160Z,28.58
2017-08-02T12:20:22.406Z,28.56
2017-08-02T12:21:23.676Z,28.56
2017-08-02T12:22:24.917Z,28.56
2017-08-02T12:23:26.189Z,28.53
2017-08-02T12:24:27.426Z,28.62
2017-08-02T12:25:28.675Z,28.54
2017-08-02T12:26:29.924Z,28.5
2017-08-02T12:27:31.176Z,28.63
2017-08-02T12:28:32.429Z,28.54
2017-08-02T12:29:33.690Z,28.62
2017-08-02T12:30:35.026Z,28.51
2017-08-02T12:31:36.291Z,28.47
2017-08-02T12:32:37.566Z,28.46
2017-08-02T12:33:38.809Z,28.38
2017-08-02T12:34:40.051Z,28.23
2017-08-02T12:35:41.371Z,28.01
2017-08-02T12:36:42.627Z,27.85
2017-08-02T12:37:43.873Z,27.84
2017-08-02T12:38:45.124Z,28.06
2017-08-02T12:39:46.434Z,28.09
2017-08-02T12:40:47.682Z,28.03
2017-08-02T12:41:48.953Z,27.84
2017-08-02T12:42:50.227Z,27.62
2017-08-02T12:43:51.529Z,27.43
2017-08-02T12:44:52.855Z,27.39
2017-08-02T12:45:54.035Z,27.36
2017-08-02T12:46:55.387Z,27.29
2017-08-02T12:47:56.627Z,27.23
2017-08-02T12:48:57.880Z,27.1
2017-08-02T12:49:59.173Z,26.96
2017-08-02T12:51:00.426Z,27.01
2017-08-02T12:52:01.669Z,26.95
2017-08-02T12:53:02.919Z,26.98
2017-08-02T12:54:04.381Z,27.04
2017-08-02T12:55:05.644Z,27.02
2017-08-02T12:56:06.915Z,26.98
2017-08-02T12:57:08.161Z,27.13
2017-08-02T12:58:09.410Z,27.21
2017-08-02T12:59:10.655Z,27.32
2017-08-02T13:00:11.950Z,27.43
2017-08-02T13:01:13.241Z,27.53
2017-08-02T13:02:14.438Z,27.62
2017-08-02T13:03:16.407Z,27.7
2017-08-02T13:04:17.536Z,27.53
2017-08-02T13:05:18.779Z,27.51
2017-08-02T13:06:20.027Z,27.43
2017-08-02T13:07:21.272Z,27.47
2017-08-02T13:08:22.539Z,27.5
2017-08-02T13:09:23.775Z,27.54
2017-08-02T13:10:25.018Z,27.77
2017-08-02T13:11:26.265Z,27.88